DAL1165 KSEA-KSLC
Flight info
| Callsign | DAL1165 |
|---|---|
| Flight time | N/A |
| Altitude | 35000 |
| Route | SUMMA2 SUMMA WANTA Q154 BYI SKEES6 |
| Aircraft | B739/M-SDE2E3FGHIRWXY/LB1 |
Departure
| Time | 2026-05-04 00:37 |
|---|---|
| Airport | Seattle–Tacoma International Airport (KSEA) |
Arrival
| Time | N/A |
|---|---|
| Airport | Salt Lake City International Airport (KSLC) |
| Time | Latitude | Longitude | Altitude | Speed | Heading |
|---|---|---|---|---|---|
| 2026-05-04 00:12 | 47.43887 | -122.29844 | 388 ft | 0 kts | 100° |
| 2026-05-04 00:29 | 47.43889 | -122.29865 | 388 ft | 4 kts | 99° |
| 2026-05-04 00:29 | 47.43893 | -122.29903 | 388 ft | 4 kts | 108° |
| 2026-05-04 00:29 | 47.43906 | -122.29936 | 388 ft | 4 kts | 143° |
| 2026-05-04 00:29 | 47.43928 | -122.29948 | 388 ft | 3 kts | 188° |
| 2026-05-04 00:30 | 47.43935 | -122.29947 | 388 ft | 1 kts | 189° |
| 2026-05-04 00:33 | 47.43932 | -122.29948 | 388 ft | 3 kts | 189° |
| 2026-05-04 00:33 | 47.43805 | -122.30053 | 385 ft | 9 kts | 220° |
| 2026-05-04 00:33 | 47.43748 | -122.30144 | 381 ft | 15 kts | 226° |
| 2026-05-04 00:34 | 47.43725 | -122.30297 | 380 ft | 16 kts | 271° |
| 2026-05-04 00:34 | 47.43727 | -122.30447 | 379 ft | 12 kts | 272° |
| 2026-05-04 00:34 | 47.43673 | -122.30545 | 375 ft | 17 kts | 203° |
| 2026-05-04 00:34 | 47.43571 | -122.30563 | 370 ft | 17 kts | 179° |
| 2026-05-04 00:35 | 47.43461 | -122.30565 | 367 ft | 13 kts | 180° |
| 2026-05-04 00:35 | 47.43352 | -122.30565 | 363 ft | 18 kts | 180° |
| 2026-05-04 00:35 | 47.43255 | -122.30565 | 360 ft | 13 kts | 180° |
| 2026-05-04 00:35 | 47.43232 | -122.30567 | 365 ft | 5 kts | 186° |
| 2026-05-04 00:36 | 47.43161 | -122.30665 | 357 ft | 14 kts | 254° |
| 2026-05-04 00:36 | 47.43170 | -122.30795 | 364 ft | 12 kts | 335° |
| 2026-05-04 00:36 | 47.43296 | -122.30802 | 361 ft | 38 kts | 0° |
| 2026-05-04 00:36 | 47.43812 | -122.30801 | 376 ft | 108 kts | 359° |
| 2026-05-04 00:37 | 47.44755 | -122.30787 | 413 ft | 160 kts | 1° |
| 2026-05-04 00:37 | 47.45957 | -122.30752 | 783 ft | 185 kts | 1° |
| 2026-05-04 00:37 | 47.47300 | -122.30735 | 1463 ft | 188 kts | 358° |
| 2026-05-04 00:37 | 47.48623 | -122.30804 | 2216 ft | 194 kts | 358° |
| 2026-05-04 00:38 | 47.50049 | -122.30866 | 2441 ft | 217 kts | 359° |
| 2026-05-04 00:38 | 47.51606 | -122.30906 | 2810 ft | 229 kts | 359° |
| 2026-05-04 00:38 | 47.53259 | -122.30930 | 3154 ft | 248 kts | 359° |
| 2026-05-04 00:38 | 47.55026 | -122.30946 | 3659 ft | 260 kts | 359° |
| 2026-05-04 00:39 | 47.56824 | -122.30960 | 4471 ft | 261 kts | 0° |
| 2026-05-04 00:39 | 47.58612 | -122.30513 | 5293 ft | 265 kts | 23° |
| 2026-05-04 00:39 | 47.60103 | -122.28910 | 6129 ft | 269 kts | 49° |
| 2026-05-04 00:39 | 47.60975 | -122.26440 | 6838 ft | 278 kts | 75° |
| 2026-05-04 00:40 | 47.61054 | -122.23565 | 7547 ft | 286 kts | 99° |
| 2026-05-04 00:40 | 47.60289 | -122.20822 | 8220 ft | 295 kts | 126° |
| 2026-05-04 00:40 | 47.58770 | -122.18850 | 9109 ft | 291 kts | 153° |
| 2026-05-04 00:40 | 47.56845 | -122.17950 | 9850 ft | 293 kts | 171° |
| 2026-05-04 00:41 | 47.54806 | -122.17484 | 10386 ft | 304 kts | 172° |
| 2026-05-04 00:41 | 47.52626 | -122.17061 | 10542 ft | 328 kts | 173° |
| 2026-05-04 00:41 | 47.50290 | -122.16625 | 10706 ft | 349 kts | 173° |
| 2026-05-04 00:41 | 47.47811 | -122.16155 | 10934 ft | 367 kts | 173° |
| 2026-05-04 00:42 | 47.45253 | -122.15658 | 11432 ft | 374 kts | 172° |
| 2026-05-04 00:42 | 47.42659 | -122.15144 | 12050 ft | 378 kts | 172° |
| 2026-05-04 00:42 | 47.40047 | -122.14619 | 12726 ft | 380 kts | 172° |
| 2026-05-04 00:42 | 47.37405 | -122.14083 | 13311 ft | 385 kts | 172° |
| 2026-05-04 00:43 | 47.34740 | -122.13552 | 13896 ft | 389 kts | 172° |
| 2026-05-04 00:43 | 47.32044 | -122.13016 | 14513 ft | 391 kts | 171° |
| 2026-05-04 00:43 | 47.29339 | -122.12475 | 15068 ft | 395 kts | 171° |
| 2026-05-04 00:43 | 47.26640 | -122.11930 | 15610 ft | 398 kts | 171° |
| 2026-05-04 00:44 | 47.23885 | -122.11370 | 16116 ft | 403 kts | 171° |
| 2026-05-04 00:44 | 47.21100 | -122.10802 | 16665 ft | 405 kts | 171° |
| 2026-05-04 00:44 | 47.18297 | -122.10229 | 17202 ft | 408 kts | 171° |
| 2026-05-04 00:44 | 47.15465 | -122.09650 | 17724 ft | 412 kts | 171° |
| 2026-05-04 00:45 | 47.12614 | -122.09068 | 18227 ft | 416 kts | 171° |
| 2026-05-04 00:45 | 47.09732 | -122.08481 | 18646 ft | 419 kts | 171° |
| 2026-05-04 00:45 | 47.06836 | -122.07891 | 19156 ft | 421 kts | 171° |
| 2026-05-04 00:45 | 47.03931 | -122.07300 | 19643 ft | 423 kts | 171° |
| 2026-05-04 00:46 | 47.01004 | -122.06706 | 20086 ft | 427 kts | 171° |
| 2026-05-04 00:46 | 46.98053 | -122.06107 | 20561 ft | 430 kts | 171° |
| 2026-05-04 00:46 | 46.95082 | -122.05504 | 21013 ft | 432 kts | 171° |
| 2026-05-04 00:46 | 46.92135 | -122.04906 | 21460 ft | 435 kts | 171° |
| 2026-05-04 00:47 | 46.89130 | -122.04298 | 21886 ft | 438 kts | 171° |
| 2026-05-04 00:47 | 46.86098 | -122.03685 | 22326 ft | 441 kts | 171° |
| 2026-05-04 00:47 | 46.83050 | -122.03070 | 22781 ft | 443 kts | 171° |
| 2026-05-04 00:47 | 46.79988 | -122.02453 | 23234 ft | 445 kts | 171° |
| 2026-05-04 00:48 | 46.76911 | -122.01833 | 23610 ft | 449 kts | 171° |
| 2026-05-04 00:48 | 46.73803 | -122.01208 | 23920 ft | 452 kts | 171° |
| 2026-05-04 00:48 | 46.70684 | -122.00581 | 24306 ft | 453 kts | 171° |
| 2026-05-04 00:48 | 46.67548 | -121.99952 | 24702 ft | 455 kts | 171° |
| 2026-05-04 00:49 | 46.64460 | -121.98975 | 25029 ft | 456 kts | 156° |
| 2026-05-04 00:49 | 46.61747 | -121.96654 | 25400 ft | 452 kts | 139° |
| 2026-05-04 00:49 | 46.59574 | -121.93400 | 25770 ft | 449 kts | 123° |
| 2026-05-04 00:49 | 46.57955 | -121.89534 | 26127 ft | 449 kts | 117° |
| 2026-05-04 00:50 | 46.56452 | -121.85619 | 26450 ft | 451 kts | 117° |
| 2026-05-04 00:50 | 46.54923 | -121.81621 | 26730 ft | 455 kts | 117° |
| 2026-05-04 00:50 | 46.53364 | -121.77606 | 27052 ft | 457 kts | 117° |
| 2026-05-04 00:50 | 46.51780 | -121.73594 | 27379 ft | 459 kts | 118° |
| 2026-05-04 00:51 | 46.50178 | -121.69580 | 27740 ft | 461 kts | 118° |
| 2026-05-04 00:51 | 46.48565 | -121.65553 | 28087 ft | 462 kts | 118° |
| 2026-05-04 00:51 | 46.46940 | -121.61511 | 28390 ft | 465 kts | 118° |
| 2026-05-04 00:51 | 46.45265 | -121.57482 | 28693 ft | 468 kts | 119° |
| 2026-05-04 00:52 | 46.43551 | -121.53475 | 29116 ft | 467 kts | 120° |
| 2026-05-04 00:52 | 46.41828 | -121.49493 | 29661 ft | 464 kts | 120° |
| 2026-05-04 00:52 | 46.40117 | -121.45549 | 30178 ft | 461 kts | 120° |
| 2026-05-04 00:52 | 46.38439 | -121.41676 | 30548 ft | 460 kts | 120° |
| 2026-05-04 00:53 | 46.36742 | -121.37750 | 30853 ft | 460 kts | 119° |
| 2026-05-04 00:53 | 46.35045 | -121.33819 | 31197 ft | 459 kts | 119° |
| 2026-05-04 00:53 | 46.33357 | -121.29907 | 31577 ft | 458 kts | 119° |
| 2026-05-04 00:53 | 46.31672 | -121.26004 | 31929 ft | 457 kts | 119° |
| 2026-05-04 00:54 | 46.29989 | -121.22109 | 32250 ft | 456 kts | 119° |
| 2026-05-04 00:54 | 46.28305 | -121.18217 | 32552 ft | 456 kts | 119° |
| 2026-05-04 00:54 | 46.26623 | -121.14334 | 32862 ft | 456 kts | 119° |
| 2026-05-04 00:54 | 46.24943 | -121.10462 | 33190 ft | 455 kts | 119° |
| 2026-05-04 00:55 | 46.23262 | -121.06594 | 33497 ft | 454 kts | 119° |
| 2026-05-04 00:55 | 46.21582 | -121.02733 | 33784 ft | 454 kts | 119° |
| 2026-05-04 00:55 | 46.19903 | -120.98881 | 34043 ft | 453 kts | 119° |
| 2026-05-04 00:55 | 46.18225 | -120.95037 | 34298 ft | 453 kts | 119° |
| 2026-05-04 00:56 | 46.16547 | -120.91199 | 34549 ft | 452 kts | 119° |
| 2026-05-04 00:56 | 46.14889 | -120.87417 | 34725 ft | 453 kts | 119° |
| 2026-05-04 00:56 | 46.13206 | -120.83577 | 34881 ft | 454 kts | 119° |